Time;durP1;ratioP1;P1;durP2;ratioP2;P2;SDS_P1;SDS_P2;PMS_P1;PMS_P2;Temp;Humidity;BMP_temperature;BMP_pressure;BME280_temperature;BME280_humidity;BME280_pressure;Samples;Min_cycle;Max_cycle;Signal;HPM_P1;HPM_P2
2022/03/08 00:00:17;;;;;;;17.40;10.43;;;3.20;95.60;;;;;;4988667;28;20050;-51
2022/03/08 00:03:01;;;;;;;13.27;10.10;;;3.20;95.60;;;;;;4993514;28;20068;-48
2022/03/08 00:05:46;;;;;;;16.23;10.10;;;3.20;95.70;;;;;;4993049;28;20042;-54
2022/03/08 00:08:31;;;;;;;14.98;10.55;;;3.20;95.60;;;;;;4993579;28;20104;-51
2022/03/08 00:11:16;;;;;;;18.52;10.73;;;3.20;95.60;;;;;;4991571;28;20037;-48
2022/03/08 00:14:00;;;;;;;;;;;3.20;95.60;;;;;;4994390;28;20386;-50
2022/03/08 00:16:45;;;;;;;14.25;9.98;;;3.10;95.90;;;;;;4992106;28;20001;-51
2022/03/08 00:19:29;;;;;;;12.48;9.70;;;3.10;95.90;;;;;;4991125;28;20308;-50
2022/03/08 00:22:14;;;;;;;13.55;9.70;;;3.10;96.10;;;;;;4991568;28;20117;-50
2022/03/08 00:25:01;;;;;;;14.85;10.65;;;3.10;96.00;;;;;;4993256;28;20065;-51
2022/03/08 00:27:48;;;;;;;12.85;9.88;;;3.10;96.00;;;;;;4993026;28;20037;-50
2022/03/08 00:30:33;;;;;;;13.63;10.05;;;3.00;96.30;;;;;;4989598;28;20064;-52
2022/03/08 00:33:17;;;;;;;16.23;10.05;;;3.00;96.50;;;;;;4990747;28;20040;-54
2022/03/08 00:36:02;;;;;;;17.17;10.02;;;3.10;96.60;;;;;;4992685;28;20509;-54
2022/03/08 00:38:46;;;;;;;18.23;11.10;;;3.10;96.60;;;;;;4989310;28;20485;-52
2022/03/08 00:41:30;;;;;;;16.33;10.35;;;3.10;96.70;;;;;;4990809;28;20077;-51
2022/03/08 00:44:14;;;;;;;14.60;10.75;;;3.10;96.80;;;;;;4991339;28;20088;-51
2022/03/08 00:46:58;;;;;;;16.63;10.30;;;3.10;96.90;;;;;;4990873;28;20552;-53
2022/03/08 00:49:42;;;;;;;24.85;14.88;;;3.00;97.20;;;;;;4992720;28;20033;-50
2022/03/08 00:52:26;;;;;;;25.40;14.85;;;3.00;97.60;;;;;;4989194;28;20041;-50
2022/03/08 00:55:11;;;;;;;18.30;11.18;;;2.90;97.70;;;;;;4990943;28;20041;-48
2022/03/08 00:57:56;;;;;;;15.80;11.35;;;2.90;97.90;;;;;;4990823;28;20097;-52
2022/03/08 01:00:41;;;;;;;17.73;11.02;;;2.90;97.60;;;;;;4991412;28;20045;-52
2022/03/08 01:03:25;;;;;;;15.02;9.93;;;2.80;97.60;;;;;;4992200;28;20398;-51
2022/03/08 01:06:11;;;;;;;16.73;11.57;;;2.70;97.90;;;;;;4990406;28;20128;-52
2022/03/08 01:08:55;;;;;;;19.23;11.38;;;2.70;98.00;;;;;;4990168;28;20076;-48
2022/03/08 01:11:41;;;;;;;16.27;10.75;;;2.60;98.20;;;;;;4991119;28;20077;-53
2022/03/08 01:14:26;;;;;;;14.60;11.32;;;2.60;98.20;;;;;;4991961;28;20141;-50
2022/03/08 01:17:10;;;;;;;21.48;11.90;;;2.60;98.30;;;;;;4989883;28;20033;-51
2022/03/08 01:19:54;;;;;;;15.63;11.30;;;2.60;98.30;;;;;;4990608;28;20058;-50
2022/03/08 01:22:39;;;;;;;16.30;10.55;;;2.60;98.50;;;;;;4991657;28;20037;-52
2022/03/08 01:25:23;;;;;;;14.48;10.20;;;2.50;98.40;;;;;;4991604;28;20037;-49
2022/03/08 01:28:08;;;;;;;15.82;10.48;;;2.60;98.60;;;;;;4989474;28;20047;-49
2022/03/08 01:30:52;;;;;;;14.50;10.90;;;2.60;98.60;;;;;;5003256;28;20089;-50
2022/03/08 01:33:36;;;;;;;12.98;10.43;;;2.70;98.00;;;;;;4990064;28;20041;-52
2022/03/08 01:36:23;;;;;;;17.90;10.52;;;2.60;98.30;;;;;;4991470;28;20056;-53
2022/03/08 01:39:07;;;;;;;15.32;10.32;;;2.50;98.60;;;;;;4989536;28;20073;-52
2022/03/08 01:41:51;;;;;;;17.70;10.98;;;2.50;98.70;;;;;;4988706;28;20509;-49
2022/03/08 01:44:35;;;;;;;14.45;10.40;;;2.50;98.70;;;;;;4990498;28;20030;-48
2022/03/08 01:47:22;;;;;;;14.73;10.43;;;2.50;98.60;;;;;;4990491;28;20126;-49
2022/03/08 01:50:07;;;;;;;13.82;10.52;;;2.50;98.70;;;;;;4989102;28;20037;-49
2022/03/08 01:52:52;;;;;;;;;;;2.50;98.70;;;;;;4991838;28;20069;-51
2022/03/08 01:55:36;;;;;;;17.98;10.77;;;2.50;98.50;;;;;;4990163;28;19917;-49
2022/03/08 01:58:20;;;;;;;14.93;9.25;;;2.40;98.60;;;;;;5003836;28;20041;-49
2022/03/08 02:01:05;;;;;;;15.35;11.40;;;2.40;98.80;;;;;;4991502;28;20397;-51
2022/03/08 02:03:49;;;;;;;;;;;2.40;98.80;;;;;;4989684;28;20084;-49
2022/03/08 02:06:34;;;;;;;15.82;9.77;;;2.40;98.90;;;;;;4990120;28;19925;-51
2022/03/08 02:09:18;;;;;;;13.02;10.05;;;2.30;98.80;;;;;;4989796;28;20049;-50
2022/03/08 02:12:04;;;;;;;15.10;10.10;;;2.40;99.20;;;;;;4991811;28;20061;-51
2022/03/08 02:14:48;;;;;;;14.23;10.23;;;2.30;99.50;;;;;;4990231;28;20037;-48
2022/03/08 02:17:32;;;;;;;15.55;10.32;;;2.30;99.70;;;;;;4996141;28;20398;-50
2022/03/08 02:20:17;;;;;;;16.60;10.85;;;2.20;99.90;;;;;;5008746;28;20041;-53
2022/03/08 02:23:01;;;;;;;14.80;10.85;;;2.20;99.90;;;;;;4995194;28;20085;-51
2022/03/08 02:25:46;;;;;;;16.90;10.50;;;2.10;99.90;;;;;;4995666;28;20056;-52
2022/03/08 02:28:30;;;;;;;16.25;10.88;;;2.10;99.90;;;;;;4995722;28;20037;-49
2022/03/08 02:31:17;;;;;;;12.55;9.73;;;2.00;99.90;;;;;;4984873;28;20069;-51
2022/03/08 02:34:02;;;;;;;14.77;10.20;;;2.00;99.90;;;;;;4996460;28;20040;-53
2022/03/08 02:37:05;;;;;;;16.38;9.45;;;2.10;99.90;;;;;;4996544;28;20041;-53
2022/03/08 02:39:48;;;;;;;14.75;9.50;;;2.00;99.90;;;;;;4996255;28;20033;-53
2022/03/08 02:42:33;;;;;;;14.07;9.80;;;2.10;99.90;;;;;;4995674;28;20616;-55
2022/03/08 02:45:17;;;;;;;15.32;10.55;;;2.10;99.90;;;;;;4996313;28;20057;-49
2022/03/08 02:48:02;;;;;;;;;;;2.10;99.90;;;;;;4996630;28;20077;-50
2022/03/08 02:50:47;;;;;;;13.38;9.80;;;2.00;99.90;;;;;;4996206;28;19913;-48
2022/03/08 02:53:31;;;;;;;13.75;9.07;;;2.00;99.90;;;;;;4995674;28;20078;-50
2022/03/08 02:56:15;;;;;;;11.13;9.32;;;1.90;99.90;;;;;;4996143;28;20128;-50
2022/03/08 02:59:00;;;;;;;14.70;9.30;;;2.00;99.80;;;;;;4995532;28;20065;-50
2022/03/08 03:01:44;;;;;;;15.45;9.63;;;2.00;99.80;;;;;;4995485;28;20041;-51
2022/03/08 03:04:29;;;;;;;15.57;10.23;;;2.00;99.80;;;;;;4995893;28;20049;-48
2022/03/08 03:07:14;;;;;;;15.77;10.02;;;2.00;99.90;;;;;;4985660;28;20033;-51
2022/03/08 03:09:58;;;;;;;14.38;10.25;;;2.00;99.90;;;;;;4995548;28;20466;-55
2022/03/08 03:12:43;;;;;;;15.18;10.80;;;2.00;99.90;;;;;;4994528;28;20556;-53
2022/03/08 03:15:29;;;;;;;14.60;10.05;;;2.00;99.90;;;;;;4995532;28;20041;-48
2022/03/08 03:18:13;;;;;;;15.40;10.32;;;2.00;99.90;;;;;;4995650;28;20115;-53
2022/03/08 03:20:57;;;;;;;13.35;10.25;;;2.00;99.90;;;;;;4995367;28;20089;-50
2022/03/08 03:23:41;;;;;;;17.33;10.85;;;2.00;99.90;;;;;;4995439;28;20052;-49
2022/03/08 03:26:25;;;;;;;15.90;10.15;;;1.90;99.90;;;;;;4994647;28;20457;-51
2022/03/08 03:29:09;;;;;;;13.40;11.03;;;1.90;99.90;;;;;;4995322;28;20105;-50
2022/03/08 03:31:53;;;;;;;14.65;10.52;;;1.90;99.90;;;;;;4995192;28;20580;-49
2022/03/08 03:34:37;;;;;;;15.60;10.10;;;1.80;99.90;;;;;;5008065;28;20037;-48
2022/03/08 03:37:23;;;;;;;16.00;9.68;;;1.90;99.90;;;;;;4995514;28;20053;-51
2022/03/08 03:40:09;;;;;;;16.02;9.10;;;1.80;99.90;;;;;;4995445;28;20046;-48
2022/03/08 03:42:53;;;;;;;13.35;10.18;;;1.80;99.90;;;;;;4994793;28;20052;-53
2022/03/08 03:45:38;;;;;;;13.20;9.40;;;1.70;99.90;;;;;;4995350;28;20045;-51
2022/03/08 03:48:22;;;;;;;15.43;9.85;;;1.80;99.90;;;;;;4995065;28;20097;-50
2022/03/08 03:51:06;;;;;;;14.77;9.80;;;1.60;99.90;;;;;;4994793;28;20065;-50
2022/03/08 03:53:50;;;;;;;15.90;11.07;;;1.50;99.90;;;;;;4994752;28;20065;-50
2022/03/08 03:56:34;;;;;;;23.00;10.63;;;1.40;99.90;;;;;;4995280;28;20033;-51
2022/03/08 03:59:18;;;;;;;14.73;9.75;;;1.40;99.90;;;;;;5007291;28;20081;-51
2022/03/08 04:02:02;;;;;;;13.40;9.10;;;1.40;99.90;;;;;;4994568;28;20068;-52
2022/03/08 04:04:47;;;;;;;13.38;9.10;;;1.40;99.90;;;;;;4995127;28;20041;-50
2022/03/08 04:07:31;;;;;;;16.75;9.90;;;1.40;99.90;;;;;;4994660;28;20096;-50
2022/03/08 04:10:16;;;;;;;;;;;1.40;99.90;;;;;;4994828;28;20037;-50
2022/03/08 04:13:00;;;;;;;16.35;10.00;;;1.30;99.90;;;;;;4994251;28;20396;-51
2022/03/08 04:15:45;;;;;;;12.73;9.13;;;1.30;99.90;;;;;;4994596;28;20046;-50
2022/03/08 04:18:29;;;;;;;17.52;10.68;;;1.40;99.90;;;;;;4995093;28;20028;-49
2022/03/08 04:21:13;;;;;;;15.05;9.25;;;1.40;99.90;;;;;;4994919;28;20053;-49
2022/03/08 04:23:59;;;;;;;14.18;8.60;;;1.40;99.90;;;;;;4993992;28;20080;-50
2022/03/08 04:26:43;;;;;;;17.95;10.07;;;1.30;99.90;;;;;;4994525;28;20045;-51
2022/03/08 04:29:27;;;;;;;14.52;9.93;;;1.30;99.90;;;;;;4994342;28;20041;-51
2022/03/08 04:32:11;;;;;;;13.73;9.75;;;1.30;99.90;;;;;;4993821;28;20454;-49
2022/03/08 04:34:55;;;;;;;14.27;9.95;;;1.20;99.90;;;;;;4994133;28;20037;-50
2022/03/08 04:37:40;;;;;;;14.57;9.98;;;1.20;99.90;;;;;;4994143;28;20549;-47
2022/03/08 04:40:24;;;;;;;14.43;10.38;;;1.30;99.90;;;;;;4973731;28;20057;-48
2022/03/08 04:43:08;;;;;;;17.08;9.90;;;1.30;99.90;;;;;;4993609;28;20049;-50
2022/03/08 04:45:52;;;;;;;14.48;9.55;;;1.30;99.90;;;;;;4994420;28;20414;-51
2022/03/08 04:48:36;;;;;;;16.50;10.15;;;1.30;99.90;;;;;;4993949;28;20084;-49
2022/03/08 04:51:20;;;;;;;13.93;10.65;;;1.30;99.90;;;;;;4994078;28;20033;-50
2022/03/08 04:54:04;;;;;;;18.80;11.20;;;1.30;99.90;;;;;;4993794;28;20045;-51
2022/03/08 04:56:48;;;;;;;19.25;11.25;;;1.40;99.90;;;;;;4994013;28;20090;-49
2022/03/08 04:59:32;;;;;;;15.25;11.05;;;1.30;99.90;;;;;;4993905;28;20137;-50
2022/03/08 05:02:15;;;;;;;14.13;9.73;;;1.40;99.90;;;;;;4993272;28;20093;-53
2022/03/08 05:05:00;;;;;;;15.45;9.90;;;1.30;99.90;;;;;;4993560;28;20072;-53
2022/03/08 05:07:44;;;;;;;15.48;9.98;;;1.30;99.90;;;;;;4974258;28;20045;-49
2022/03/08 05:10:28;;;;;;;14.80;9.70;;;1.30;99.90;;;;;;4977980;28;20049;-50
2022/03/08 05:13:13;;;;;;;17.52;9.75;;;1.20;99.90;;;;;;4993067;28;20060;-53
2022/03/08 05:15:57;;;;;;;14.73;10.23;;;1.10;99.90;;;;;;4993149;28;20037;-50
2022/03/08 05:18:41;;;;;;;16.27;10.00;;;1.10;99.90;;;;;;4993590;28;20037;-49
2022/03/08 05:21:24;;;;;;;16.02;9.95;;;1.00;99.90;;;;;;4992116;28;20128;-48
2022/03/08 05:24:09;;;;;;;14.60;10.18;;;1.00;99.90;;;;;;4992412;28;20041;-54
2022/03/08 05:26:53;;;;;;;16.52;10.63;;;1.00;99.90;;;;;;4993417;28;20045;-49
2022/03/08 05:29:37;;;;;;;16.20;10.35;;;1.00;99.90;;;;;;4982683;28;20037;-50
2022/03/08 05:32:21;;;;;;;16.00;11.20;;;0.90;99.90;;;;;;4992393;28;20045;-53
2022/03/08 05:35:06;;;;;;;21.55;10.75;;;0.80;99.90;;;;;;4992923;28;20080;-51
2022/03/08 05:37:50;;;;;;;19.42;11.23;;;0.80;99.90;;;;;;4992894;28;20038;-49
2022/03/08 05:40:34;;;;;;;15.98;11.32;;;0.90;99.90;;;;;;4993173;28;20560;-49
2022/03/08 05:43:18;;;;;;;22.08;12.30;;;0.90;99.90;;;;;;4992722;28;20041;-48
2022/03/08 05:46:03;;;;;;;18.05;11.65;;;1.00;99.90;;;;;;4992691;28;20053;-52
2022/03/08 05:48:47;;;;;;;24.30;12.32;;;1.00;99.90;;;;;;4992745;28;20037;-52
2022/03/08 05:51:31;;;;;;;15.65;11.68;;;1.00;99.90;;;;;;4992352;28;20077;-54
2022/03/08 05:54:15;;;;;;;15.30;10.80;;;1.00;99.90;;;;;;4992559;28;20033;-51
2022/03/08 05:56:59;;;;;;;19.13;10.88;;;1.10;99.90;;;;;;4992965;28;20037;-50
2022/03/08 05:59:44;;;;;;;26.02;12.15;;;1.00;99.90;;;;;;4992726;28;20120;-51
2022/03/08 06:02:29;;;;;;;25.35;12.15;;;1.00;99.90;;;;;;4992869;28;20517;-52
2022/03/08 06:05:13;;;;;;;33.40;13.25;;;1.10;99.90;;;;;;4992790;28;20119;-52
2022/03/08 06:07:57;;;;;;;14.85;10.52;;;1.10;99.90;;;;;;4992862;28;20077;-48
2022/03/08 06:10:41;;;;;;;16.13;10.23;;;1.10;99.90;;;;;;5003246;28;20049;-49
2022/03/08 06:13:26;;;;;;;18.23;10.90;;;1.10;99.90;;;;;;4973161;28;20101;-51
2022/03/08 06:16:10;;;;;;;28.50;12.82;;;1.10;99.90;;;;;;4989427;28;20130;-48
2022/03/08 06:18:56;;;;;;;26.95;12.23;;;1.00;99.90;;;;;;4993003;28;20054;-52
2022/03/08 06:21:40;;;;;;;53.67;24.77;;;1.00;99.90;;;;;;4992985;28;20109;-51
2022/03/08 06:24:24;;;;;;;39.75;20.52;;;1.00;99.90;;;;;;5004974;28;20093;-48
2022/03/08 06:27:09;;;;;;;22.67;13.82;;;1.10;99.90;;;;;;4973871;28;20451;-49
2022/03/08 06:29:53;;;;;;;29.20;13.27;;;1.10;99.90;;;;;;5011481;28;20045;-50
2022/03/08 06:32:37;;;;;;;21.73;12.35;;;1.20;99.90;;;;;;4993179;28;20053;-48
2022/03/08 06:35:22;;;;;;;23.08;12.90;;;1.30;99.90;;;;;;4992099;28;20087;-53
2022/03/08 06:38:06;;;;;;;24.15;12.68;;;1.30;99.90;;;;;;4992728;28;20402;-50
2022/03/08 06:40:50;;;;;;;24.88;11.85;;;1.40;99.90;;;;;;4988042;28;20041;-51
2022/03/08 06:43:34;;;;;;;17.55;11.70;;;1.40;99.90;;;;;;4991015;28;20045;-47
2022/03/08 06:46:18;;;;;;;19.70;12.50;;;1.40;99.90;;;;;;4992065;28;20444;-48
2022/03/08 06:49:03;;;;;;;23.95;11.82;;;1.50;99.90;;;;;;4992807;28;20541;-48
2022/03/08 06:51:47;;;;;;;22.23;12.20;;;1.50;99.90;;;;;;4992744;28;20045;-46
2022/03/08 06:54:31;;;;;;;23.95;12.93;;;1.50;99.90;;;;;;4992606;28;20504;-47
2022/03/08 06:57:15;;;;;;;24.00;11.77;;;1.60;99.90;;;;;;4992433;28;20114;-46
2022/03/08 06:59:59;;;;;;;20.15;12.82;;;1.60;99.90;;;;;;4992564;28;20092;-47
2022/03/08 07:02:44;;;;;;;235.45;43.67;;;1.50;99.90;;;;;;4995457;28;20430;-47
2022/03/08 07:05:28;;;;;;;55.67;17.05;;;1.60;99.90;;;;;;4996270;28;20137;-46
2022/03/08 07:08:12;;;;;;;23.90;13.00;;;1.70;99.90;;;;;;4995863;28;20049;-47
2022/03/08 07:10:57;;;;;;;32.33;17.02;;;1.80;99.90;;;;;;4996008;28;20033;-49
2022/03/08 07:13:41;;;;;;;21.10;14.13;;;1.90;99.90;;;;;;4994690;28;20552;-46
2022/03/08 07:16:25;;;;;;;18.42;12.00;;;2.00;99.90;;;;;;4995771;28;20085;-49
2022/03/08 07:19:09;;;;;;;38.85;14.38;;;2.10;99.90;;;;;;4988948;28;20042;-49
2022/03/08 07:21:54;;;;;;;19.90;11.27;;;2.20;99.90;;;;;;4978846;28;20137;-46
2022/03/08 07:24:38;;;;;;;20.88;11.30;;;2.40;99.90;;;;;;4995685;28;20046;-46
2022/03/08 07:27:22;;;;;;;24.20;10.23;;;2.60;99.90;;;;;;4995516;28;20049;-47
2022/03/08 07:30:08;;;;;;;16.60;8.63;;;2.70;99.90;;;;;;4996107;28;20038;-46
2022/03/08 07:32:52;;;;;;;35.75;9.73;;;2.70;99.90;;;;;;4995237;28;20498;-52
2022/03/08 07:35:36;;;;;;;28.65;9.52;;;2.70;99.90;;;;;;4995492;28;20045;-51
2022/03/08 07:38:21;;;;;;;18.42;8.75;;;2.70;99.90;;;;;;4995187;28;20069;-48
2022/03/08 07:41:05;;;;;;;11.32;7.68;;;2.70;99.90;;;;;;4994946;28;20057;-47
2022/03/08 07:43:49;;;;;;;17.05;8.77;;;2.70;99.90;;;;;;4995326;28;20152;-46
2022/03/08 07:46:33;;;;;;;17.08;8.52;;;2.70;99.90;;;;;;5007114;28;20261;-47
2022/03/08 07:49:17;;;;;;;15.80;8.77;;;2.70;99.90;;;;;;4994755;28;20119;-48
2022/03/08 07:52:02;;;;;;;13.27;7.97;;;2.70;99.90;;;;;;4995443;28;20033;-49
2022/03/08 07:54:46;;;;;;;15.32;8.38;;;2.80;99.90;;;;;;4994936;28;20125;-51
2022/03/08 07:57:30;;;;;;;13.90;8.10;;;2.80;99.90;;;;;;4988223;28;20105;-53
2022/03/08 08:00:14;;;;;;;10.67;8.33;;;2.90;99.90;;;;;;4994057;28;20086;-49
2022/03/08 08:03:03;;;;;;;12.45;7.93;;;3.00;99.90;;;;;;4994440;28;20084;-50
2022/03/08 08:05:47;;;;;;;18.35;8.60;;;3.10;99.90;;;;;;4994507;28;20108;-47
2022/03/08 08:08:31;;;;;;;17.23;8.70;;;3.10;99.90;;;;;;4993124;28;20057;-49
2022/03/08 08:11:15;;;;;;;17.40;9.55;;;3.20;99.90;;;;;;4991670;28;20092;-50
2022/03/08 08:13:59;;;;;;;12.60;8.43;;;3.20;99.90;;;;;;4990112;28;20087;-46
2022/03/08 08:16:43;;;;;;;14.75;8.73;;;3.30;99.90;;;;;;5003900;28;20036;-49
2022/03/08 08:19:27;;;;;;;15.20;8.48;;;3.50;99.90;;;;;;4998629;28;20414;-47
2022/03/08 08:22:11;;;;;;;16.48;8.70;;;3.60;99.90;;;;;;4994210;28;20089;-47
2022/03/08 08:24:56;;;;;;;15.32;8.82;;;3.70;99.80;;;;;;4993289;28;20053;-52
2022/03/08 08:27:40;;;;;;;30.23;9.80;;;3.80;99.80;;;;;;4991373;28;20041;-49
2022/03/08 08:30:25;;;;;;;16.88;9.20;;;3.80;99.80;;;;;;4992034;28;20104;-47
2022/03/08 08:33:09;;;;;;;19.65;8.95;;;3.90;99.60;;;;;;4992722;28;20045;-46
2022/03/08 08:35:53;;;;;;;44.10;10.00;;;3.80;99.50;;;;;;4986742;28;20049;-48
2022/03/08 08:38:37;;;;;;;19.88;9.90;;;3.90;99.60;;;;;;4987336;28;20045;-47
2022/03/08 08:41:21;;;;;;;14.65;8.88;;;3.90;99.70;;;;;;4992460;28;20038;-47
2022/03/08 08:44:05;;;;;;;14.70;9.20;;;4.00;99.60;;;;;;4993125;28;20118;-47
2022/03/08 08:46:49;;;;;;;12.35;9.00;;;4.10;99.50;;;;;;5006333;28;20049;-50
2022/03/08 08:49:33;;;;;;;13.80;8.50;;;4.30;99.20;;;;;;5006917;28;20033;-49
2022/03/08 08:52:17;;;;;;;15.27;8.88;;;4.40;98.90;;;;;;5003761;28;20045;-49
2022/03/08 08:55:01;;;;;;;19.90;8.38;;;4.50;98.80;;;;;;5004773;28;20069;-50
2022/03/08 08:57:45;;;;;;;13.38;9.88;;;4.70;98.90;;;;;;4987266;28;20038;-49
2022/03/08 09:00:30;;;;;;;20.25;10.80;;;4.60;98.50;;;;;;4990810;28;20069;-51
2022/03/08 09:03:16;;;;;;;19.05;9.23;;;4.70;98.70;;;;;;4991533;28;20084;-48
2022/03/08 09:06:00;;;;;;;23.20;10.45;;;4.70;98.90;;;;;;4985522;28;20044;-47
2022/03/08 09:08:44;;;;;;;14.83;9.53;;;4.80;98.50;;;;;;4993250;28;20169;-48
2022/03/08 09:11:28;;;;;;;18.38;9.07;;;4.90;98.50;;;;;;4992367;28;20080;-46
2022/03/08 09:14:13;;;;;;;14.43;10.03;;;5.00;98.40;;;;;;4984408;28;20390;-48
2022/03/08 09:16:57;;;;;;;25.13;10.18;;;5.00;98.40;;;;;;4986061;28;20159;-53
2022/03/08 09:19:41;;;;;;;19.88;9.27;;;5.10;98.20;;;;;;4984381;28;20057;-47
2022/03/08 09:22:26;;;;;;;16.33;10.18;;;5.30;98.00;;;;;;4984101;28;20041;-52
2022/03/08 09:25:09;;;;;;;28.65;10.18;;;5.40;97.50;;;;;;4986584;28;20108;-50
2022/03/08 09:27:54;;;;;;;14.02;8.88;;;5.50;97.60;;;;;;4984662;28;20040;-49
2022/03/08 09:30:38;;;;;;;16.37;8.87;;;5.60;97.40;;;;;;4985094;28;20170;-48
2022/03/08 09:33:22;;;;;;;19.95;9.65;;;5.60;97.20;;;;;;4989787;28;20406;-50
2022/03/08 09:36:06;;;;;;;19.80;9.88;;;5.70;97.40;;;;;;4992447;28;20514;-47
2022/03/08 09:38:50;;;;;;;16.30;8.68;;;5.80;97.00;;;;;;4987803;28;20041;-51
2022/03/08 09:41:35;;;;;;;13.38;8.30;;;6.00;99.90;;;;;;4984698;28;20053;-48
2022/03/08 09:44:19;;;;;;;18.27;9.27;;;6.20;97.60;;;;;;4974166;28;20042;-49
2022/03/08 09:47:04;;;;;;;16.80;8.95;;;6.20;96.90;;;;;;4976151;28;20041;-50
2022/03/08 09:49:49;;;;;;;13.70;8.80;;;6.10;96.50;;;;;;4993343;28;20100;-50
2022/03/08 09:52:36;;;;;;;13.07;7.47;;;6.20;96.40;;;;;;4993498;28;20038;-53
2022/03/08 09:55:21;;;;;;;21.20;12.98;;;6.30;96.50;;;;;;5005584;28;20076;-53
2022/03/08 09:58:05;;;;;;;14.30;8.50;;;6.50;95.60;;;;;;4998700;28;20073;-46
2022/03/08 10:00:51;;;;;;;46.70;11.38;;;6.50;95.40;;;;;;4992681;28;20085;-50
2022/03/08 10:03:39;;;;;;;27.05;7.70;;;6.50;95.50;;;;;;5002391;28;20084;-50
2022/03/08 10:06:38;;;;;;;13.23;7.30;;;6.60;95.30;;;;;;4987171;28;20089;-50
2022/03/08 10:09:24;;;;;;;9.80;6.72;;;6.60;95.20;;;;;;4984430;28;20088;-54
2022/03/08 10:12:16;;;;;;;10.88;6.53;;;6.80;95.00;;;;;;4990477;28;20053;-46
2022/03/08 10:15:17;;;;;;;16.85;6.90;;;6.90;95.10;;;;;;4989162;28;20427;-52
2022/03/08 10:18:01;;;;;;;13.90;6.80;;;6.90;94.30;;;;;;4990622;28;20545;-49
2022/03/08 10:20:45;;;;;;;39.10;8.38;;;6.80;94.20;;;;;;4990670;28;20122;-49
2022/03/08 10:23:40;;;;;;;18.55;6.60;;;6.70;94.20;;;;;;4990938;28;20121;-51
2022/03/08 10:26:25;;;;;;;9.00;6.32;;;6.80;94.20;;;;;;4988561;28;20061;-48
2022/03/08 10:29:09;;;;;;;26.58;7.43;;;6.90;93.90;;;;;;5004302;28;20045;-47
2022/03/08 10:32:06;;;;;;;8.35;5.45;;;7.00;93.30;;;;;;4990908;28;20092;-50
2022/03/08 10:34:54;;;;;;;23.42;6.43;;;6.90;93.30;;;;;;4991605;28;20077;-50
2022/03/08 10:37:39;;;;;;;17.58;5.97;;;7.00;92.60;;;;;;4995650;28;20034;-50
2022/03/08 10:40:32;;;;;;;12.23;6.03;;;7.10;92.30;;;;;;4996366;28;20085;-51
2022/03/08 10:43:18;;;;;;;15.02;6.53;;;7.30;92.20;;;;;;4995828;28;20073;-47
2022/03/08 10:46:14;;;;;;;10.10;4.97;;;7.50;91.80;;;;;;4996128;28;20040;-52
2022/03/08 10:49:10;;;;;;;23.60;6.95;;;7.30;90.80;;;;;;4996114;28;20076;-47
2022/03/08 10:52:03;;;;;;;11.98;5.57;;;7.30;90.70;;;;;;4991895;28;20061;-53
2022/03/08 10:54:47;;;;;;;28.60;7.63;;;7.30;91.30;;;;;;4996462;28;20133;-46
2022/03/08 10:57:35;;;;;;;14.40;6.15;;;7.50;91.40;;;;;;4995452;28;20077;-50
2022/03/08 11:00:23;;;;;;;9.75;5.13;;;7.60;90.50;;;;;;4995047;28;20033;-48
2022/03/08 11:03:13;;;;;;;12.60;5.53;;;7.60;90.50;;;;;;4995802;28;20033;-54
2022/03/08 11:06:05;;;;;;;11.38;6.45;;;7.70;90.10;;;;;;4976377;28;20566;-52
2022/03/08 11:08:52;;;;;;;8.45;5.30;;;7.80;87.60;;;;;;4980182;28;20663;-52
2022/03/08 11:11:37;;;;;;;8.75;4.40;;;7.80;87.00;;;;;;4995717;28;20033;-50
2022/03/08 11:14:22;;;;;;;11.23;4.55;;;7.80;85.50;;;;;;4995272;28;20057;-51
2022/03/08 11:17:06;;;;;;;11.15;4.25;;;7.80;84.80;;;;;;4995743;28;20037;-53
2022/03/08 11:19:50;;;;;;;10.10;4.50;;;7.70;81.80;;;;;;5008134;28;20133;-55
2022/03/08 11:22:36;;;;;;;14.60;4.63;;;7.30;83.00;;;;;;4995223;28;20525;-51
2022/03/08 11:25:21;;;;;;;8.10;3.70;;;7.40;82.40;;;;;;4986085;28;20050;-54
2022/03/08 11:28:07;;;;;;;7.47;3.95;;;7.50;82.10;;;;;;4992617;28;20061;-48
2022/03/08 11:30:56;;;;;;;7.70;4.03;;;7.70;80.20;;;;;;4992246;28;20045;-53
2022/03/08 11:34:01;;;;;;;6.18;3.85;;;7.60;79.40;;;;;;4991163;28;20045;-52
2022/03/08 11:36:53;;;;;;;10.63;4.07;;;7.50;80.40;;;;;;4994853;28;20033;-49
2022/03/08 11:39:40;;;;;;;6.18;4.15;;;7.70;80.80;;;;;;4988482;28;20394;-51
2022/03/08 11:42:27;;;;;;;12.05;4.22;;;7.80;77.20;;;;;;4990362;28;20100;-48
2022/03/08 11:45:19;;;;;;;10.07;3.83;;;7.80;75.70;;;;;;4996216;28;20705;-48
2022/03/08 11:48:07;;;;;;;20.20;4.97;;;7.90;75.80;;;;;;5007308;28;20125;-53
2022/03/08 11:50:52;;;;;;;4.65;3.70;;;7.80;76.20;;;;;;4995383;28;20451;-50
2022/03/08 11:53:39;;;;;;;10.50;4.22;;;7.80;76.30;;;;;;5011643;28;20160;-52
2022/03/08 11:56:24;;;;;;;9.48;4.35;;;7.90;76.80;;;;;;5011679;28;20134;-51
2022/03/08 11:59:09;;;;;;;5.72;3.67;;;8.00;76.30;;;;;;4995795;28;20445;-49
2022/03/08 12:01:54;;;;;;;19.73;4.93;;;8.00;76.50;;;;;;4996364;28;20087;-46
2022/03/08 12:04:45;;;;;;;8.05;3.85;;;8.00;77.40;;;;;;4994775;28;20032;-47
2022/03/08 12:07:29;;;;;;;9.13;3.45;;;8.20;76.50;;;;;;4995398;28;20081;-48
2022/03/08 12:10:26;;;;;;;19.00;5.10;;;8.20;74.00;;;;;;4994592;28;20085;-58
2022/03/08 12:13:14;;;;;;;16.08;4.85;;;8.20;72.80;;;;;;4992517;28;20426;-53
2022/03/08 12:16:10;;;;;;;8.13;3.78;;;8.40;72.60;;;;;;4994754;28;21976;-53
2022/03/08 12:18:57;;;;;;;8.68;3.47;;;8.50;70.40;;;;;;4996520;28;20121;-51
2022/03/08 12:21:44;;;;;;;11.27;3.55;;;8.50;69.60;;;;;;4996829;28;20489;-53
2022/03/08 12:24:42;;;;;;;36.85;7.45;;;8.70;67.40;;;;;;4995815;28;20056;-56
2022/03/08 12:27:47;;;;;;;8.93;3.88;;;8.60;66.80;;;;;;4995346;28;20069;-51
2022/03/08 12:30:39;;;;;;;9.45;3.80;;;8.70;67.90;;;;;;4994857;28;20032;-53
2022/03/08 12:33:23;;;;;;;4.25;3.20;;;8.80;68.10;;;;;;4994647;28;20085;-51
2022/03/08 12:36:08;;;;;;;21.35;5.72;;;8.80;66.40;;;;;;4995083;28;20091;-48
2022/03/08 12:38:52;;;;;;;6.43;3.55;;;8.80;65.20;;;;;;4994934;28;20426;-53
2022/03/08 12:41:36;;;;;;;5.50;3.08;;;8.80;66.20;;;;;;4993850;28;20037;-48
2022/03/08 12:44:20;;;;;;;10.98;3.65;;;9.00;66.50;;;;;;4995057;28;20093;-48
2022/03/08 12:47:05;;;;;;;7.00;3.50;;;9.10;65.40;;;;;;4993898;28;20394;-53
2022/03/08 12:49:50;;;;;;;7.28;3.33;;;9.00;65.50;;;;;;4995145;28;20041;-52
2022/03/08 12:52:45;;;;;;;4.07;3.20;;;9.00;65.80;;;;;;4994147;28;20069;-46
2022/03/08 12:55:38;;;;;;;3.72;3.17;;;9.20;65.60;;;;;;4993851;28;20383;-48
2022/03/08 12:58:28;;;;;;;9.75;3.80;;;9.20;64.00;;;;;;4994293;28;20030;-48
2022/03/08 13:01:14;;;;;;;8.15;3.10;;;9.30;64.50;;;;;;4990045;28;20118;-48
2022/03/08 13:03:58;;;;;;;8.27;3.65;;;9.40;63.20;;;;;;4993815;28;20025;-46
2022/03/08 13:06:42;;;;;;;18.35;4.05;;;9.60;63.60;;;;;;5006983;28;20564;-48
2022/03/08 13:09:26;;;;;;;17.70;3.70;;;9.70;63.10;;;;;;4994302;28;20029;-47
2022/03/08 13:12:18;;;;;;;9.50;3.67;;;9.80;62.20;;;;;;4994012;28;20521;-50
2022/03/08 13:15:10;;;;;;;5.20;3.63;;;9.90;62.10;;;;;;4994060;28;20080;-49
2022/03/08 13:18:00;;;;;;;8.48;3.22;;;9.70;62.30;;;;;;4993216;28;20033;-51
2022/03/08 13:20:50;;;;;;;4.72;3.40;;;9.90;62.80;;;;;;5001402;28;20038;-52
2022/03/08 13:23:36;;;;;;;8.25;3.28;;;9.90;61.50;;;;;;4993070;28;20122;-51
2022/03/08 13:29:24;;;;;;;5.70;3.33;;;10.20;60.90;;;;;;4993092;28;19932;-47
2022/03/08 13:32:09;;;;;;;9.05;3.78;;;10.40;60.60;;;;;;4992924;28;20084;-47
2022/03/08 13:35:02;;;;;;;8.25;3.50;;;10.40;61.10;;;;;;4992216;28;20041;-50
2022/03/08 13:37:48;;;;;;;18.00;4.55;;;10.40;61.50;;;;;;4994280;28;20029;-52
2022/03/08 13:40:33;;;;;;;11.43;4.65;;;10.70;60.60;;;;;;4997687;28;20121;-53
2022/03/08 13:43:18;;;;;;;7.15;3.45;;;10.90;59.90;;;;;;4993023;28;20037;-51
2022/03/08 13:46:06;;;;;;;12.07;3.42;;;11.10;59.40;;;;;;4992860;28;20105;-50
2022/03/08 13:49:11;;;;;;;8.98;3.47;;;11.30;58.70;;;;;;4992805;28;20034;-47
2022/03/08 13:52:01;;;;;;;20.52;4.82;;;11.10;58.60;;;;;;4992704;28;20092;-53
2022/03/08 13:54:46;;;;;;;8.70;4.00;;;11.10;59.10;;;;;;4991702;28;20025;-51
2022/03/08 13:57:30;;;;;;;6.40;3.65;;;11.20;59.20;;;;;;4987969;28;20161;-49
2022/03/08 14:00:15;;;;;;;4.97;3.67;;;11.30;58.90;;;;;;4992388;28;20168;-55
2022/03/08 14:03:00;;;;;;;5.60;3.42;;;11.60;59.10;;;;;;4989494;28;20045;-51
2022/03/08 14:05:48;;;;;;;;;;;11.60;58.60;;;;;;4991772;28;20049;-49
2022/03/08 14:08:50;;;;;;;7.35;4.05;;;11.30;58.80;;;;;;4989887;28;19936;-53
2022/03/08 14:11:34;;;;;;;19.20;4.53;;;11.30;58.80;;;;;;4993728;28;20065;-52
2022/03/08 14:14:21;;;;;;;10.07;3.83;;;11.30;58.70;;;;;;4996651;28;20037;-52
2022/03/08 14:17:06;;;;;;;8.95;4.18;;;11.50;59.10;;;;;;4996140;28;20563;-49
2022/03/08 14:19:52;;;;;;;25.83;4.80;;;11.80;58.70;;;;;;5009368;28;20405;-51
2022/03/08 14:22:37;;;;;;;6.88;3.83;;;11.90;58.40;;;;;;4995995;28;20407;-50